This is the latest recevied weather packets stored in our database for station/object KG4ZVW. If no packets are shown the sender has not sent any weather packets the latest 10 day(s).
| Time | Temp. | Humidity | Pressure | Rain* | Wind** | Luminosity | Snow |
|---|---|---|---|---|---|---|---|
| 1777749803 | 25.56° C | 80% | 1009.6 hPa | 4.32 mm | - | 234 W/m² | - |
| 1777749496 | 25.56° C | 80% | 1009.6 hPa | 4.32 mm | - | 250 W/m² | - |
| 1777749213 | 25.56° C | 80% | 1009.6 hPa | 4.32 mm | - | 279 W/m² | - |
| 1777748907 | 25.56° C | 78% | 1010.4 hPa | 4.32 mm | - | 274 W/m² | - |
| 1777748605 | 26.11° C | 75% | 1010.4 hPa | 4.06 mm | - | 160 W/m² | - |
| 1777748300 | 26.11° C | 73% | 1010.4 hPa | 3.3 mm | - | 62 W/m² | - |
| 1777747994 | 26.67° C | 71% | 1010.1 hPa | 3.05 mm | - | 121 W/m² | - |
| 1777747710 | 27.22° C | 70% | 1010.1 hPa | 3.05 mm | - | 105 W/m² | - |
| 1777747406 | 28.33° C | 67% | 1010.1 hPa | 2.79 mm | - | 25 W/m² | - |
| 1777747099 | 30.56° C | 66% | 1009.4 hPa | 0.76 mm | - | 23 W/m² | - |
| 1777746796 | 31.11° C | 60% | 1009.4 hPa | 0 mm | - | 67 W/m² | - |
| 1777746511 | 31.67° C | 59% | 1009.4 hPa | 0 mm | - | 195 W/m² | - |
| 1777746208 | 31.67° C | 60% | 1009.5 hPa | 0 mm | - | 153 W/m² | - |
| 1777745904 | 31.11° C | 61% | 1009.5 hPa | 0 mm | - | 167 W/m² | - |
| 1777745600 | 31.67° C | 59% | 1009.5 hPa | 0 mm | - | 214 W/m² | - |
| 1777745314 | 32.22° C | 59% | 1009.4 hPa | 0 mm | - | 272 W/m² | - |
| 1777745011 | 32.22° C | 59% | 1009.4 hPa | 0 mm | - | 334 W/m² | - |
| 1777744706 | 32.22° C | 60% | 1009.4 hPa | 0 mm | - | 417 W/m² | - |
| 1777744402 | 31.67° C | 61% | 1009.5 hPa | 0 mm | - | 380 W/m² | - |
| 1777744096 | 31.67° C | 61% | 1009.5 hPa | 0 mm | - | 380 W/m² | - |
| 1777743812 | 32.22° C | 59% | 1009.5 hPa | 0 mm | - | 388 W/m² | - |
| 1777743508 | 32.78° C | 59% | 1009.9 hPa | 0 mm | - | 399 W/m² | - |
| 1777743203 | 32.22° C | 60% | 1009.9 hPa | 0 mm | - | 610 W/m² | - |
| 1777742900 | 31.67° C | 61% | 1009.9 hPa | 0 mm | - | 403 W/m² | - |
| 1777742593 | 31.67° C | 62% | 1009.9 hPa | 0 mm | - | 366 W/m² | - |
* Rain latest hour (hover to see other rain measurements)
** Current wind speed in m/s (hover to see current wind gust speed)